Time;durP1;ratioP1;P1;durP2;ratioP2;P2;SDS_P1;SDS_P2;PMS_P1;PMS_P2;Temp;Humidity;BMP_temperature;BMP_pressure;BME280_temperature;BME280_humidity;BME280_pressure;Samples;Min_cycle;Max_cycle;Signal;HPM_P1;HPM_P2
2024/01/22 00:01:39;;;;;;;10.47;7.20;;;;;;;1.62;100.00;100600.09;5031758;28;20232;-62
2024/01/22 00:04:04;;;;;;;10.87;6.90;;;;;;;1.55;100.00;100596.78;5021310;28;20214;-63
2024/01/22 00:06:30;;;;;;;10.10;6.00;;;;;;;1.72;100.00;100604.22;5033225;28;20220;-62
2024/01/22 00:08:56;;;;;;;11.43;6.67;;;;;;;1.69;100.00;100595.81;5034819;28;20237;-62
2024/01/22 00:11:21;;;;;;;12.10;6.73;;;;;;;1.82;100.00;100604.13;5045432;28;20235;-68
2024/01/22 00:13:46;;;;;;;8.50;6.17;;;;;;;1.85;100.00;100601.56;5039408;28;20655;-63
2024/01/22 00:16:12;;;;;;;9.70;6.27;;;;;;;1.80;100.00;100599.09;5034666;28;20217;-62
2024/01/22 00:18:38;;;;;;;10.30;5.97;;;;;;;1.84;100.00;100585.50;5033759;28;20178;-62
2024/01/22 00:21:04;;;;;;;12.57;6.97;;;;;;;1.90;100.00;100590.50;5058574;28;20314;-61
2024/01/22 00:23:29;;;;;;;8.57;6.27;;;;;;;1.93;100.00;100587.97;5066005;28;20280;-62
2024/01/22 00:25:54;;;;;;;7.90;6.60;;;;;;;1.77;100.00;100584.75;5034630;28;20178;-62
2024/01/22 00:28:19;;;;;;;8.47;5.77;;;;;;;2.02;100.00;100589.56;5040198;28;20177;-63
2024/01/22 00:30:45;;;;;;;7.80;6.37;;;;;;;2.15;100.00;100587.69;5005420;28;20253;-62
2024/01/22 00:33:10;;;;;;;7.07;5.67;;;;;;;2.03;100.00;100598.00;5044070;28;20189;-62
2024/01/22 00:35:35;;;;;;;8.43;5.43;;;;;;;2.01;100.00;100575.19;5034612;28;20171;-61
2024/01/22 00:38:01;;;;;;;9.43;6.23;;;;;;;1.84;100.00;100560.13;5034715;28;20655;-62
2024/01/22 00:40:26;;;;;;;10.53;6.13;;;;;;;1.77;100.00;100566.13;5030655;28;20271;-62
2024/01/22 00:42:51;;;;;;;9.53;6.13;;;;;;;1.91;100.00;100560.91;5045980;28;20182;-62
2024/01/22 00:45:17;;;;;;;9.93;5.80;;;;;;;2.01;100.00;100561.63;5033989;28;20182;-62
2024/01/22 00:47:42;;;;;;;8.87;5.70;;;;;;;1.96;100.00;100550.69;5066607;28;20689;-61
2024/01/22 00:50:08;;;;;;;6.60;5.47;;;;;;;1.80;100.00;100547.50;5034743;28;20271;-62
2024/01/22 00:52:33;;;;;;;9.37;5.83;;;;;;;1.69;100.00;100540.84;5048480;28;20631;-62
2024/01/22 00:54:59;;;;;;;9.73;5.30;;;;;;;1.81;100.00;100536.50;5065509;28;20630;-62
2024/01/22 00:57:24;;;;;;;7.00;5.07;;;;;;;1.83;100.00;100525.47;5034278;28;20182;-64
2024/01/22 00:59:49;;;;;;;7.03;5.47;;;;;;;1.98;100.00;100526.16;5038047;28;20570;-63
2024/01/22 01:02:14;;;;;;;8.03;5.07;;;;;;;1.86;100.00;100529.66;5058925;28;20217;-62
2024/01/22 01:04:40;;;;;;;7.47;5.60;;;;;;;1.92;100.00;100529.59;5020840;28;20174;-63
2024/01/22 01:07:06;;;;;;;8.47;4.67;;;;;;;1.87;100.00;100518.66;5032740;28;20274;-62
2024/01/22 01:09:31;;;;;;;10.17;5.23;;;;;;;2.02;100.00;100523.56;5034103;28;20209;-61
2024/01/22 01:11:56;;;;;;;10.30;5.30;;;;;;;2.02;100.00;100522.72;5053658;28;20278;-61
2024/01/22 01:14:24;;;;;;;6.90;5.20;;;;;;;2.24;100.00;100531.72;5035925;28;20273;-62
2024/01/22 01:16:49;;;;;;;9.43;4.60;;;;;;;2.24;100.00;100526.66;5027682;28;20197;-63
2024/01/22 01:19:14;;;;;;;5.83;4.30;;;;;;;2.30;100.00;100520.66;5024155;28;20187;-63
2024/01/22 01:21:39;;;;;;;7.77;5.27;;;;;;;2.15;100.00;100531.84;5048835;28;20275;-63
2024/01/22 01:24:05;;;;;;;5.63;4.67;;;;;;;2.28;100.00;100527.44;5039630;28;20533;-62
2024/01/22 01:26:30;;;;;;;8.70;5.33;;;;;;;2.04;100.00;100523.53;5033591;28;20178;-62
2024/01/22 01:28:55;;;;;;;7.43;4.57;;;;;;;2.08;100.00;100509.94;5033397;28;20167;-64
2024/01/22 01:31:21;;;;;;;8.23;4.67;;;;;;;2.03;100.00;100492.25;5048977;28;20687;-62
2024/01/22 01:33:47;;;;;;;10.90;5.03;;;;;;;1.97;100.00;100489.78;5037749;28;20618;-61
2024/01/22 01:36:12;;;;;;;7.33;4.37;;;;;;;1.98;100.00;100488.09;5033793;28;20221;-61
2024/01/22 01:38:37;;;;;;;8.07;5.20;;;;;;;2.18;100.00;100485.28;5033459;28;20493;-61
2024/01/22 01:41:04;;;;;;;7.27;4.70;;;;;;;2.26;100.00;100488.56;5038873;28;20707;-62
2024/01/22 01:43:30;;;;;;;9.50;4.73;;;;;;;2.15;100.00;100475.19;5039435;28;20178;-62
2024/01/22 01:45:55;;;;;;;7.60;4.87;;;;;;;2.14;100.00;100473.50;5033029;28;20233;-62
2024/01/22 01:48:20;;;;;;;7.00;4.47;;;;;;;2.24;100.00;100475.06;5033446;28;20198;-62
2024/01/22 01:50:46;;;;;;;7.27;4.60;;;;;;;2.26;100.00;100473.34;5058981;28;20302;-62
2024/01/22 01:53:11;;;;;;;6.90;5.27;;;;;;;2.14;100.00;100469.25;5042328;28;20178;-61
2024/01/22 01:55:38;;;;;;;7.47;4.57;;;;;;;2.28;100.00;100463.97;5032674;28;20182;-62
2024/01/22 01:58:04;;;;;;;7.20;4.73;;;;;;;2.35;100.00;100457.13;5031778;28;20174;-61
2024/01/22 02:00:30;;;;;;;8.20;5.10;;;;;;;2.36;100.00;100461.34;5020925;28;20287;-62
2024/01/22 02:02:55;;;;;;;5.63;4.90;;;;;;;2.20;100.00;100443.78;5053512;28;20182;-62
2024/01/22 02:05:21;;;;;;;8.07;4.23;;;;;;;2.29;100.00;100442.00;5039140;28;20218;-62
2024/01/22 02:07:47;;;;;;;8.37;4.50;;;;;;;2.29;100.00;100444.53;5013304;28;20179;-61
2024/01/22 02:10:13;;;;;;;8.77;4.33;;;;;;;2.24;100.00;100429.38;5022869;28;20191;-61
2024/01/22 02:12:39;;;;;;;5.77;4.23;;;;;;;2.20;100.00;100423.50;5046808;28;20184;-61
2024/01/22 02:15:05;;;;;;;8.07;4.50;;;;;;;2.18;100.00;100409.16;5032501;28;20189;-63
2024/01/22 02:17:30;;;;;;;7.40;4.07;;;;;;;2.22;100.00;100405.69;5033640;28;20180;-62
2024/01/22 02:19:56;;;;;;;6.13;4.50;;;;;;;2.29;100.00;100398.84;5037046;28;20232;-61
2024/01/22 02:22:21;;;;;;;6.87;4.43;;;;;;;2.35;100.00;100399.56;5037886;28;20303;-61
2024/01/22 02:24:46;;;;;;;7.83;4.63;;;;;;;2.30;100.00;100401.34;5032439;28;20182;-61
2024/01/22 02:27:12;;;;;;;6.30;4.23;;;;;;;2.42;100.00;100397.78;5032168;28;20189;-61
2024/01/22 02:29:37;;;;;;;8.60;4.43;;;;;;;2.35;100.00;100388.59;5032354;28;20192;-61
2024/01/22 02:32:03;;;;;;;8.23;4.43;;;;;;;2.35;100.00;100384.34;5053583;28;20231;-61
2024/01/22 02:34:28;;;;;;;5.90;4.10;;;;;;;2.29;100.00;100373.44;5031234;28;20706;-61
2024/01/22 02:36:53;;;;;;;7.80;3.77;;;;;;;2.29;100.00;100376.81;5032184;28;20600;-61
2024/01/22 02:39:19;;;;;;;4.70;4.20;;;;;;;2.14;100.00;100382.97;5031088;28;20540;-61
2024/01/22 02:41:44;;;;;;;6.47;4.33;;;;;;;2.19;100.00;100382.91;5048545;28;20231;-62
2024/01/22 02:44:09;;;;;;;10.07;4.43;;;;;;;2.12;100.00;100394.00;5037261;28;20721;-62
2024/01/22 02:46:35;;;;;;;7.13;4.30;;;;;;;2.01;100.00;100382.31;5031774;28;20234;-62
2024/01/22 02:49:00;;;;;;;7.33;4.53;;;;;;;1.91;100.00;100374.00;5036923;28;20278;-61
2024/01/22 02:51:25;;;;;;;8.60;4.63;;;;;;;1.65;100.00;100351.56;5045504;28;20220;-61
2024/01/22 02:53:52;;;;;;;5.53;4.30;;;;;;;1.75;100.00;100348.03;5042165;28;20218;-61
2024/01/22 02:56:18;;;;;;;7.20;4.50;;;;;;;1.74;100.00;100346.34;5030462;28;20231;-61
2024/01/22 02:58:44;;;;;;;5.43;3.83;;;;;;;2.01;100.00;100354.41;5030176;28;20178;-61
2024/01/22 03:01:09;;;;;;;4.47;3.97;;;;;;;2.05;100.00;100358.56;5039222;28;20235;-63
2024/01/22 03:03:34;;;;;;;7.57;4.20;;;;;;;2.22;100.00;100343.09;5037161;28;20183;-61
2024/01/22 03:06:00;;;;;;;6.63;4.10;;;;;;;2.25;100.00;100335.41;5025917;28;20209;-62
2024/01/22 03:08:25;;;;;;;7.07;4.57;;;;;;;2.20;100.00;100337.19;5031932;28;20178;-61
2024/01/22 03:10:50;;;;;;;6.10;3.77;;;;;;;2.25;100.00;100345.56;5033863;28;20228;-62
2024/01/22 03:13:15;;;;;;;5.73;4.00;;;;;;;2.21;100.00;100340.59;5050185;28;20178;-62
2024/01/22 03:15:41;;;;;;;5.57;4.53;;;;;;;2.20;100.00;100337.19;5030284;28;20192;-62
2024/01/22 03:18:06;;;;;;;4.70;3.93;;;;;;;2.23;100.00;100343.91;5031100;28;20189;-62
2024/01/22 03:20:31;;;;;;;6.70;3.93;;;;;;;2.04;100.00;100325.63;5025175;28;20239;-61
2024/01/22 03:22:57;;;;;;;6.23;3.53;;;;;;;2.04;100.00;100339.13;5042793;28;20277;-61
2024/01/22 03:25:22;;;;;;;6.07;4.30;;;;;;;2.08;100.00;100334.84;5030667;28;20669;-61
2024/01/22 03:27:47;;;;;;;4.60;3.77;;;;;;;2.12;100.00;100331.38;5031317;28;20199;-62
2024/01/22 03:30:12;;;;;;;3.47;3.00;;;;;;;2.01;100.00;100307.88;5023865;28;20190;-61
2024/01/22 03:32:38;;;;;;;4.80;3.57;;;;;;;1.82;100.00;100295.50;5060253;28;20633;-61
2024/01/22 03:35:03;;;;;;;4.30;2.67;;;;;;;1.88;100.00;100287.78;5031151;28;20182;-60
2024/01/22 03:37:29;;;;;;;6.07;2.97;;;;;;;2.10;100.00;100279.84;5031373;28;20962;-60
2024/01/22 03:39:54;;;;;;;5.20;3.17;;;;;;;2.24;100.00;100272.00;5031262;28;20204;-60
2024/01/22 03:42:19;;;;;;;6.07;2.70;;;;;;;2.39;100.00;100258.19;5052880;28;20252;-61
2024/01/22 03:44:44;;;;;;;5.23;1.93;;;;;;;2.65;100.00;100251.78;5030841;28;20236;-62
2024/01/22 03:47:10;;;;;;;4.13;2.30;;;;;;;2.67;100.00;100244.97;5031309;28;20233;-60
2024/01/22 03:49:35;;;;;;;4.43;2.20;;;;;;;2.83;100.00;100251.41;5035824;28;20177;-61
2024/01/22 03:52:00;;;;;;;2.90;1.87;;;;;;;2.95;100.00;100242.69;5051967;28;20715;-61
2024/01/22 03:54:25;;;;;;;3.50;2.10;;;;;;;3.11;100.00;100235.59;5031694;28;20179;-61
2024/01/22 03:56:51;;;;;;;3.93;1.83;;;;;;;3.17;100.00;100219.38;5014164;28;20183;-60
2024/01/22 03:59:16;;;;;;;4.90;2.50;;;;;;;3.24;100.00;100215.84;5053165;28;20528;-60
2024/01/22 04:01:41;;;;;;;5.53;2.00;;;;;;;3.38;100.00;100203.63;5046447;28;20255;-60
2024/01/22 04:04:06;;;;;;;5.43;2.07;;;;;;;3.46;100.00;100193.31;5023992;28;20634;-61
2024/01/22 04:06:32;;;;;;;3.27;2.63;;;;;;;3.66;100.00;100186.88;5022635;28;20234;-60
2024/01/22 04:08:57;;;;;;;2.50;1.93;;;;;;;3.81;100.00;100183.97;5018551;28;20590;-60
2024/01/22 04:11:22;;;;;;;2.70;1.93;;;;;;;3.86;100.00;100197.41;5041486;28;20250;-62
2024/01/22 04:13:47;;;;;;;9.83;2.30;;;;;;;3.95;100.00;100187.88;5042118;28;20185;-60
2024/01/22 04:16:13;;;;;;;3.57;1.73;;;;;;;3.97;100.00;100189.50;5030813;28;20181;-60
2024/01/22 04:18:42;;;;;;;5.07;1.83;;;;;;;4.07;100.00;100189.25;5031152;28;20626;-60
2024/01/22 04:21:08;;;;;;;4.03;2.03;;;;;;;4.16;100.00;100191.56;5031088;28;20255;-60
2024/01/22 04:23:34;;;;;;;3.77;1.57;;;;;;;4.09;100.00;100192.59;5036611;28;20188;-60
2024/01/22 04:26:03;;;;;;;4.40;1.93;;;;;;;4.06;100.00;100187.56;5030739;28;20280;-61
2024/01/22 04:28:28;;;;;;;2.53;1.60;;;;;;;3.97;100.00;100181.88;5063015;28;20189;-60
2024/01/22 04:30:53;;;;;;;4.00;1.97;;;;;;;4.06;100.00;100177.38;5015925;28;20239;-60
2024/01/22 04:33:19;;;;;;;5.37;2.23;;;;;;;3.98;100.00;100173.34;5053771;28;20189;-61
2024/01/22 04:35:44;;;;;;;5.13;1.97;;;;;;;3.98;100.00;100168.28;5034464;28;20211;-61
2024/01/22 04:38:09;;;;;;;3.67;1.97;;;;;;;4.11;100.00;100178.13;5034576;28;20213;-62
2024/01/22 04:40:35;;;;;;;3.80;1.60;;;;;;;4.09;100.00;100175.59;5032736;28;20228;-65
2024/01/22 04:43:00;;;;;;;3.57;2.00;;;;;;;4.14;100.00;100167.84;5057319;28;20272;-61
2024/01/22 04:45:26;;;;;;;1.57;1.47;;;;;;;4.21;100.00;100166.81;5033905;28;20244;-61
2024/01/22 04:47:51;;;;;;;2.83;1.80;;;;;;;4.12;100.00;100162.81;5033094;28;20387;-61
2024/01/22 04:50:16;;;;;;;3.73;1.83;;;;;;;3.98;100.00;100150.44;5029495;28;20186;-62
2024/01/22 04:52:41;;;;;;;5.20;2.27;;;;;;;3.88;100.00;100156.63;5061660;28;20181;-61
2024/01/22 04:55:07;;;;;;;5.03;1.93;;;;;;;3.97;100.00;100153.88;5032743;28;20190;-61
2024/01/22 04:57:32;;;;;;;5.10;2.00;;;;;;;3.92;100.00;100159.94;5033831;28;20208;-61
2024/01/22 04:59:57;;;;;;;3.10;1.97;;;;;;;4.14;100.00;100143.25;5034337;28;20244;-61
2024/01/22 05:02:27;;;;;;;2.73;1.83;;;;;;;4.16;100.00;100136.38;5055699;28;20232;-61
2024/01/22 05:05:01;;;;;;;3.97;1.67;;;;;;;3.98;100.00;100127.53;5020796;28;20260;-61
2024/01/22 05:07:26;;;;;;;3.10;1.77;;;;;;;3.83;100.00;100115.22;5032695;28;20183;-61
2024/01/22 05:09:58;;;;;;;6.07;1.77;;;;;;;3.92;100.00;100101.41;5034131;28;20543;-62
2024/01/22 05:12:24;;;;;;;1.97;1.77;;;;;;;4.08;100.00;100100.13;5039355;28;20237;-61
2024/01/22 05:14:49;;;;;;;4.77;1.70;;;;;;;4.16;100.00;100100.72;5032411;28;20190;-61
2024/01/22 05:17:14;;;;;;;6.33;2.40;;;;;;;4.15;100.00;100099.06;5033608;28;20263;-62
2024/01/22 05:19:40;;;;;;;3.87;1.73;;;;;;;4.23;100.00;100098.88;5033841;28;20205;-62
2024/01/22 05:22:05;;;;;;;3.50;1.23;;;;;;;4.24;100.00;100102.22;5054993;28;20232;-62
2024/01/22 05:24:31;;;;;;;2.90;1.77;;;;;;;4.36;100.00;100097.63;5033536;28;20196;-62
2024/01/22 05:26:56;;;;;;;3.20;1.90;;;;;;;4.45;100.00;100096.53;5033352;28;20188;-62
2024/01/22 05:29:21;;;;;;;2.23;1.60;;;;;;;4.25;100.00;100092.00;5034218;28;20216;-61
2024/01/22 05:31:46;;;;;;;1.87;1.60;;;;;;;4.34;100.00;100090.91;5050682;28;20300;-61
2024/01/22 05:34:12;;;;;;;2.73;1.70;;;;;;;4.32;100.00;100078.22;5038479;28;20245;-61
2024/01/22 05:36:37;;;;;;;2.37;1.60;;;;;;;4.44;100.00;100068.53;5033360;28;20208;-61
2024/01/22 05:39:05;;;;;;;3.70;1.67;;;;;;;4.58;100.00;100070.69;5033196;28;20171;-61
2024/01/22 05:41:30;;;;;;;2.50;1.67;;;;;;;4.74;100.00;100064.25;5036189;28;20594;-62
2024/01/22 05:43:55;;;;;;;1.43;1.27;;;;;;;4.77;100.00;100068.41;5042469;28;20181;-61
2024/01/22 05:46:21;;;;;;;3.37;1.50;;;;;;;4.87;100.00;100051.94;5033012;28;20226;-62
2024/01/22 05:48:46;;;;;;;2.47;1.67;;;;;;;4.87;100.00;100051.94;5036010;28;20672;-61
2024/01/22 05:51:11;;;;;;;5.07;1.87;;;;;;;4.91;100.00;100050.97;5046322;28;20244;-61
2024/01/22 05:53:37;;;;;;;3.20;1.73;;;;;;;4.83;100.00;100038.47;5034795;28;20178;-61
2024/01/22 05:56:03;;;;;;;4.77;1.60;;;;;;;4.86;100.00;100029.88;5032820;28;20177;-62
2024/01/22 05:58:28;;;;;;;6.00;1.73;;;;;;;4.90;100.00;100023.81;5031905;28;20549;-61
2024/01/22 06:00:54;;;;;;;2.97;1.43;;;;;;;4.90;100.00;100016.19;5035866;28;20771;-63
2024/01/22 06:03:20;;;;;;;1.60;1.50;;;;;;;4.96;100.00;100026.16;5044529;28;20186;-61
2024/01/22 06:05:45;;;;;;;2.10;1.60;;;;;;;4.91;100.00;100025.50;5026564;28;20205;-62
2024/01/22 06:08:10;;;;;;;5.90;2.00;;;;;;;5.00;100.00;100024.34;5032726;28;20182;-62
2024/01/22 06:10:36;;;;;;;4.00;1.70;;;;;;;5.05;100.00;100024.19;5031713;28;20232;-62
2024/01/22 06:13:01;;;;;;;4.07;1.90;;;;;;;5.11;100.00;100006.13;5054994;28;20178;-61
2024/01/22 06:15:27;;;;;;;4.40;2.00;;;;;;;5.15;100.00;100010.28;5032621;28;20174;-62
2024/01/22 06:17:53;;;;;;;3.47;1.90;;;;;;;5.06;100.00;100000.38;5032604;28;20178;-61
2024/01/22 06:20:18;;;;;;;1.77;1.40;;;;;;;5.14;100.00;100003.50;5025108;28;20194;-62
2024/01/22 06:22:44;;;;;;;2.80;1.70;;;;;;;5.09;100.00;100001.09;5059958;28;20182;-61
2024/01/22 06:25:09;;;;;;;5.67;1.83;;;;;;;4.99;100.00;100003.13;5032432;28;20178;-62
2024/01/22 06:27:35;;;;;;;3.20;1.80;;;;;;;5.13;100.00;99992.44;5032286;28;20186;-61
2024/01/22 06:30:01;;;;;;;2.57;2.37;;;;;;;5.19;100.00;99999.06;5032551;28;20189;-63
2024/01/22 06:32:27;;;;;;;4.03;2.03;;;;;;;5.15;100.00;99987.31;5037416;28;20233;-61
2024/01/22 06:34:53;;;;;;;2.67;1.87;;;;;;;5.30;100.00;99984.22;5031013;28;20189;-61
2024/01/22 06:37:18;;;;;;;2.07;1.40;;;;;;;5.34;100.00;99992.63;5032198;28;20181;-61
2024/01/22 06:39:44;;;;;;;3.57;1.30;;;;;;;5.42;100.00;99987.22;5031911;28;20208;-62
2024/01/22 06:42:09;;;;;;;2.63;1.63;;;;;;;5.43;100.00;99994.00;5053305;28;20930;-61
2024/01/22 06:44:34;;;;;;;4.00;1.63;;;;;;;5.41;100.00;100000.88;5030431;28;20206;-62
2024/01/22 06:46:59;;;;;;;1.77;1.50;;;;;;;5.47;100.00;100006.59;5031803;28;20222;-61
2024/01/22 06:49:25;;;;;;;5.10;1.90;;;;;;;5.41;100.00;100000.88;5039976;28;20255;-63
2024/01/22 06:51:50;;;;;;;4.63;1.73;;;;;;;5.44;100.00;99995.69;5049216;28;20691;-63
2024/01/22 06:54:16;;;;;;;4.10;1.50;;;;;;;5.38;100.00;99999.25;5035312;28;20184;-62
2024/01/22 06:56:41;;;;;;;1.70;1.30;;;;;;;5.33;100.00;100003.69;5030667;28;20193;-62
2024/01/22 06:59:06;;;;;;;3.50;1.93;;;;;;;5.40;100.00;99999.22;5031843;28;20235;-62
2024/01/22 07:01:32;;;;;;;3.70;1.70;;;;;;;5.41;100.00;99994.06;5035361;28;20237;-62
2024/01/22 07:03:57;;;;;;;3.83;1.83;;;;;;;5.41;100.00;99999.16;5027868;28;20194;-62
2024/01/22 07:06:22;;;;;;;2.23;1.37;;;;;;;5.38;100.00;99994.16;5030142;28;20668;-62
2024/01/22 07:08:47;;;;;;;4.40;1.80;;;;;;;5.39;100.00;100000.94;5031379;28;20174;-61
2024/01/22 07:11:13;;;;;;;2.80;1.50;;;;;;;5.38;100.00;100001.00;5040143;28;20220;-62
2024/01/22 07:13:38;;;;;;;3.83;1.80;;;;;;;5.44;100.00;100000.78;5045098;28;20545;-62
2024/01/22 07:16:06;;;;;;;5.17;2.57;;;;;;;5.42;100.00;100012.75;5026119;28;20182;-61
2024/01/22 07:18:31;;;;;;;2.30;1.70;;;;;;;5.28;100.00;100003.88;5023926;28;20208;-61
2024/01/22 07:20:58;;;;;;;4.03;1.43;;;;;;;5.37;100.00;100007.81;5035326;28;20673;-62
2024/01/22 07:23:24;;;;;;;3.30;1.87;;;;;;;5.46;100.00;100002.38;5038572;28;20273;-61
2024/01/22 07:25:49;;;;;;;3.00;1.50;;;;;;;5.62;100.00;99996.75;5031250;28;20265;-61
2024/01/22 07:28:14;;;;;;;2.80;1.60;;;;;;;5.50;100.00;99991.19;5031687;28;20186;-62
2024/01/22 07:30:40;;;;;;;4.57;1.63;;;;;;;5.62;100.00;100004.41;5027868;28;20247;-62
2024/01/22 07:33:05;;;;;;;3.57;1.83;;;;;;;5.65;100.00;100012.78;5052061;28;20664;-63
2024/01/22 07:35:30;;;;;;;4.60;1.90;;;;;;;5.67;100.00;100002.53;5030810;28;20220;-62
2024/01/22 07:37:56;;;;;;;3.90;1.90;;;;;;;5.65;100.00;100001.75;5031039;28;20178;-61
2024/01/22 07:40:21;;;;;;;3.43;1.70;;;;;;;5.77;100.00;100006.41;5025495;28;20240;-62
2024/01/22 07:42:47;;;;;;;3.73;2.10;;;;;;;5.84;100.00;99998.53;5057892;28;20228;-61
2024/01/22 07:45:13;;;;;;;3.30;1.90;;;;;;;5.91;100.00;100011.00;5030656;28;20492;-62
2024/01/22 07:47:38;;;;;;;5.53;2.00;;;;;;;5.89;100.00;100010.25;5029810;28;20198;-61
2024/01/22 07:50:05;;;;;;;2.17;1.50;;;;;;;5.74;100.00;100003.13;5030988;28;20231;-60
2024/01/22 07:52:33;;;;;;;3.57;1.67;;;;;;;5.88;100.00;100015.38;5058275;28;20225;-61
2024/01/22 07:54:58;;;;;;;3.37;1.90;;;;;;;5.93;100.00;100021.19;5030839;28;20208;-61
2024/01/22 07:57:23;;;;;;;3.50;1.97;;;;;;;6.03;100.00;100014.88;5023116;28;20701;-61
2024/01/22 07:59:48;;;;;;;3.07;2.10;;;;;;;6.05;100.00;100023.28;5022172;28;20189;-61
2024/01/22 08:02:14;;;;;;;3.00;1.70;;;;;;;6.01;100.00;100031.97;5040136;28;20579;-61
2024/01/22 08:04:40;;;;;;;4.73;1.97;;;;;;;5.93;100.00;100031.41;5028192;28;20207;-61
2024/01/22 08:07:06;;;;;;;4.63;1.70;;;;;;;5.97;100.00;100015.88;5034491;28;20189;-61
2024/01/22 08:09:34;;;;;;;4.53;1.83;;;;;;;6.09;100.00;100024.00;5033331;28;20261;-61
2024/01/22 08:11:59;;;;;;;1.70;1.47;;;;;;;6.07;100.00;100013.03;5041971;28;20379;-61
2024/01/22 08:14:24;;;;;;;9.90;1.90;;;;;;;6.15;100.00;100018.66;5035810;28;20268;-61
2024/01/22 08:16:50;;;;;;;3.23;1.60;;;;;;;6.12;100.00;100021.34;5034504;28;20641;-60
2024/01/22 08:19:17;;;;;;;4.03;1.90;;;;;;;6.28;100.00;100024.16;5034246;28;20204;-62
2024/01/22 08:21:43;;;;;;;2.70;1.83;;;;;;;6.18;100.00;100023.69;5037149;28;20528;-60
2024/01/22 08:24:08;;;;;;;2.27;1.50;;;;;;;6.19;100.00;100021.94;5038752;28;20236;-62
2024/01/22 08:26:33;;;;;;;2.83;1.63;;;;;;;6.21;100.00;100010.78;5032959;28;20549;-60
2024/01/22 08:28:59;;;;;;;1.90;1.63;;;;;;;6.11;100.00;100023.06;5032981;28;20525;-61
2024/01/22 08:31:24;;;;;;;2.77;1.80;;;;;;;6.24;100.00;100025.16;5015307;28;20226;-61
2024/01/22 08:33:50;;;;;;;2.43;2.00;;;;;;;6.25;100.00;100014.06;5045582;28;20178;-60
2024/01/22 08:36:15;;;;;;;5.10;1.80;;;;;;;6.44;100.00;100015.00;5033818;28;20276;-62
2024/01/22 08:38:41;;;;;;;3.57;1.70;;;;;;;6.61;100.00;100010.97;5034216;28;20616;-61
2024/01/22 08:41:08;;;;;;;2.60;1.80;;;;;;;6.53;100.00;100006.16;5040548;28;20255;-61
2024/01/22 08:43:34;;;;;;;2.20;1.60;;;;;;;6.52;100.00;99996.00;5048635;28;20558;-61
2024/01/22 08:45:59;;;;;;;1.83;1.53;;;;;;;6.40;100.00;100005.81;5034221;28;20217;-61
2024/01/22 08:48:25;;;;;;;2.40;1.77;;;;;;;6.51;100.00;100002.84;5034121;28;20240;-61
2024/01/22 08:50:50;;;;;;;1.33;1.23;;;;;;;6.39;100.00;100009.25;5038430;28;20248;-62
2024/01/22 08:53:16;;;;;;;1.90;1.60;;;;;;;6.44;100.00;100001.41;5053632;28;20244;-61
2024/01/22 08:55:41;;;;;;;3.07;1.70;;;;;;;6.40;100.00;100012.63;5033385;28;20189;-62
2024/01/22 08:58:06;;;;;;;2.90;1.83;;;;;;;6.59;100.00;100005.91;5034168;28;20193;-62
2024/01/22 09:00:31;;;;;;;2.40;1.80;;;;;;;6.67;100.00;99995.38;5031383;28;20289;-61
2024/01/22 09:02:57;;;;;;;3.97;1.80;;;;;;;6.63;100.00;99993.84;5054238;28;20181;-61
2024/01/22 09:05:22;;;;;;;2.77;1.70;;;;;;;6.87;100.00;99993.75;5023876;28;20209;-61
2024/01/22 09:07:48;;;;;;;3.77;1.80;;;;;;;6.97;100.00;99979.72;5033845;28;20182;-61
2024/01/22 09:10:14;;;;;;;2.30;1.47;;;;;;;6.87;100.00;99998.88;5058340;28;20177;-63
2024/01/22 09:12:40;;;;;;;3.70;1.73;;;;;;;6.87;100.00;99999.72;5062015;28;20244;-62
2024/01/22 09:15:06;;;;;;;6.63;1.80;;;;;;;6.72;100.00;99995.19;5032887;28;20190;-63
2024/01/22 09:17:33;;;;;;;3.13;1.67;;;;;;;6.90;100.00;99986.78;5062413;28;20193;-61
2024/01/22 09:19:59;;;;;;;2.38;1.85;;;;;;;7.18;100.00;99984.81;5031004;28;20421;-61
2024/01/22 09:22:28;;;;;;;3.00;1.87;;;;;;;7.07;100.00;99975.00;5038377;28;20263;-61
2024/01/22 09:24:54;;;;;;;2.40;1.63;;;;;;;6.98;100.00;99977.97;5033371;28;20202;-60
2024/01/22 09:27:19;;;;;;;2.47;1.90;;;;;;;7.14;100.00;99978.16;5033587;28;20210;-61
2024/01/22 09:29:45;;;;;;;3.70;1.97;;;;;;;7.09;100.00;99978.34;5030891;28;20528;-61
2024/01/22 09:32:11;;;;;;;2.23;2.10;;;;;;;7.20;100.00;99978.72;5040191;28;20249;-63
2024/01/22 09:34:37;;;;;;;4.93;1.90;;;;;;;7.12;100.00;99983.34;5026226;28;20185;-62
2024/01/22 09:37:03;;;;;;;2.27;1.97;;;;;;;6.98;100.00;99970.31;5031891;28;20219;-61
2024/01/22 09:42:50;;;;;;;4.27;3.30;;;;;;;7.12;100.00;99965.44;5014209;28;20225;-61
2024/01/22 09:45:16;;;;;;;3.47;1.70;;;;;;;7.25;100.00;99971.69;5033194;28;20186;-62
2024/01/22 09:47:42;;;;;;;3.00;1.83;;;;;;;7.41;100.00;99971.03;5064690;28;20232;-62
2024/01/22 09:50:08;;;;;;;1.87;1.70;;;;;;;7.40;100.00;99964.25;5010650;28;20194;-61
2024/01/22 09:52:34;;;;;;;3.53;1.73;;;;;;;7.38;100.00;99959.19;5047194;28;20182;-61
2024/01/22 09:55:00;;;;;;;2.47;1.60;;;;;;;7.60;100.00;99960.81;5032641;28;20179;-62
2024/01/22 09:57:27;;;;;;;2.93;1.80;;;;;;;7.72;100.00;99957.69;5032821;28;20186;-65
2024/01/22 09:59:54;;;;;;;3.53;1.90;;;;;;;7.68;100.00;99958.75;5031371;28;20190;-62
2024/01/22 10:02:20;;;;;;;3.03;1.77;;;;;;;7.77;100.00;99961.81;5031016;28;20229;-62
2024/01/22 10:04:46;;;;;;;2.80;1.83;;;;;;;7.63;100.00;99973.50;5029867;28;20178;-62
2024/01/22 10:07:13;;;;;;;2.00;1.70;;;;;;;7.49;100.00;99960.44;5032318;28;20609;-61
2024/01/22 10:09:38;;;;;;;2.20;1.77;;;;;;;7.38;100.00;99966.03;5031077;28;20283;-61
2024/01/22 10:12:04;;;;;;;2.27;1.50;;;;;;;7.41;100.00;99976.97;5052532;28;20659;-61
2024/01/22 10:14:41;;;;;;;2.53;1.70;;;;;;;7.25;100.00;99974.25;5032998;28;20174;-61
2024/01/22 10:17:21;;;;;;;1.97;1.80;;;;;;;7.32;100.00;99963.75;5032377;28;20186;-62
2024/01/22 10:19:48;;;;;;;2.57;1.60;;;;;;;7.18;100.00;99959.22;5053352;28;20201;-61
2024/01/22 10:22:17;;;;;;;1.97;1.70;;;;;;;7.19;100.00;99958.34;5040581;28;20237;-61
2024/01/22 10:24:42;;;;;;;2.13;1.70;;;;;;;7.07;100.00;99950.28;5030894;28;20189;-63
2024/01/22 10:27:15;;;;;;;4.10;1.57;;;;;;;7.18;100.00;99946.44;5063796;28;20194;-61
2024/01/22 10:29:43;;;;;;;3.70;1.50;;;;;;;7.20;100.00;99939.53;5031105;28;20189;-61
2024/01/22 10:32:08;;;;;;;2.20;1.57;;;;;;;7.37;100.00;99942.19;5026061;28;20667;-61
2024/01/22 10:34:53;;;;;;;2.23;1.67;;;;;;;7.30;100.00;99943.34;5032404;28;20189;-61
2024/01/22 10:37:19;;;;;;;2.53;1.77;;;;;;;7.26;100.00;99944.38;5032323;28;20217;-61
2024/01/22 10:39:48;;;;;;;2.00;1.63;;;;;;;7.22;100.00;99942.88;5032128;28;20221;-60
2024/01/22 10:42:18;;;;;;;2.20;1.43;;;;;;;7.16;100.00;99930.34;5038556;28;20307;-61
2024/01/22 10:44:45;;;;;;;1.90;1.60;;;;;;;7.19;100.00;99927.63;5030488;28;20216;-60
2024/01/22 10:47:12;;;;;;;2.00;1.70;;;;;;;7.27;100.00;99921.28;5030479;28;20250;-61
2024/01/22 10:49:37;;;;;;;1.50;1.40;;;;;;;7.27;100.00;99912.78;5041807;28;20231;-61
2024/01/22 10:52:04;;;;;;;2.80;1.40;;;;;;;7.31;100.00;99914.31;5054519;28;20232;-61
2024/01/22 10:54:30;;;;;;;7.77;2.30;;;;;;;7.35;100.00;99912.44;5032176;28;20236;-61
2024/01/22 10:57:15;;;;;;;2.30;1.40;;;;;;;7.18;100.00;99913.19;5031727;28;20572;-62
2024/01/22 10:59:46;;;;;;;3.47;1.53;;;;;;;7.10;100.00;99911.78;5063428;28;20201;-62
2024/01/22 11:02:34;;;;;;;2.07;1.60;;;;;;;7.10;100.00;99905.84;5038633;28;20272;-62
2024/01/22 11:05:06;;;;;;;2.90;1.40;;;;;;;6.99;100.00;99890.94;5018691;28;20660;-61
2024/01/22 11:07:39;;;;;;;5.07;1.80;;;;;;;6.99;100.00;99897.81;5031131;28;20186;-61
2024/01/22 11:10:06;;;;;;;5.80;2.23;;;;;;;7.08;100.00;99884.59;5030418;28;20170;-62
2024/01/22 11:12:41;;;;;;;2.53;2.00;;;;;;;7.10;100.00;99880.25;5035767;28;20217;-62
2024/01/22 11:15:06;;;;;;;2.93;1.60;;;;;;;7.13;100.00;99880.13;5031256;28;20669;-62
2024/01/22 11:17:32;;;;;;;4.30;1.70;;;;;;;7.15;100.00;99873.22;5030904;28;20285;-62
2024/01/22 11:20:20;;;;;;;3.47;1.70;;;;;;;7.20;100.00;99873.84;5031262;28;20210;-61
2024/01/22 11:23:09;;;;;;;2.07;1.83;;;;;;;7.23;100.00;99866.03;5001224;28;20218;-62
2024/01/22 11:25:35;;;;;;;3.30;1.80;;;;;;;7.40;100.00;99872.13;5031189;28;20268;-62